sensor_id;sensor_type;location;lat;lon;timestamp;P1;durP1;ratioP1;P2;durP2;ratioP2
53646;SDS011;39550;52.230;5.194;2022-10-17T00:02:22;6.05;;;3.85;;
53646;SDS011;39550;52.230;5.194;2022-10-17T00:04:47;6.13;;;3.75;;
53646;SDS011;39550;52.230;5.194;2022-10-17T00:07:13;5.78;;;3.78;;
53646;SDS011;39550;52.230;5.194;2022-10-17T00:09:40;6.35;;;3.42;;
53646;SDS011;39550;52.230;5.194;2022-10-17T00:12:06;6.50;;;3.55;;
53646;SDS011;39550;52.230;5.194;2022-10-17T00:14:32;5.43;;;3.38;;
53646;SDS011;39550;52.230;5.194;2022-10-17T00:16:57;4.97;;;3.40;;
53646;SDS011;39550;52.230;5.194;2022-10-17T00:21:49;7.03;;;3.50;;
53646;SDS011;39550;52.230;5.194;2022-10-17T00:24:15;9.70;;;4.22;;
53646;SDS011;39550;52.230;5.194;2022-10-17T00:26:40;5.93;;;3.40;;
53646;SDS011;39550;52.230;5.194;2022-10-17T00:29:05;5.25;;;3.50;;
53646;SDS011;39550;52.230;5.194;2022-10-17T00:31:31;5.03;;;3.35;;
53646;SDS011;39550;52.230;5.194;2022-10-17T00:33:56;5.82;;;3.72;;
53646;SDS011;39550;52.230;5.194;2022-10-17T00:36:22;5.47;;;3.53;;
53646;SDS011;39550;52.230;5.194;2022-10-17T00:38:50;4.70;;;3.22;;
53646;SDS011;39550;52.230;5.194;2022-10-17T00:41:18;5.70;;;3.63;;
53646;SDS011;39550;52.230;5.194;2022-10-17T00:46:22;6.15;;;3.80;;
53646;SDS011;39550;52.230;5.194;2022-10-17T00:48:52;5.63;;;3.97;;
53646;SDS011;39550;52.230;5.194;2022-10-17T00:51:20;6.25;;;3.65;;
53646;SDS011;39550;52.230;5.194;2022-10-17T00:53:50;5.45;;;3.45;;
53646;SDS011;39550;52.230;5.194;2022-10-17T00:56:17;4.75;;;2.95;;
53646;SDS011;39550;52.230;5.194;2022-10-17T00:58:44;5.88;;;3.38;;
53646;SDS011;39550;52.230;5.194;2022-10-17T01:01:09;8.02;;;4.03;;
53646;SDS011;39550;52.230;5.194;2022-10-17T01:03:35;5.68;;;3.20;;
53646;SDS011;39550;52.230;5.194;2022-10-17T01:06:00;6.38;;;3.40;;
53646;SDS011;39550;52.230;5.194;2022-10-17T01:08:25;4.90;;;3.42;;
53646;SDS011;39550;52.230;5.194;2022-10-17T01:13:29;6.35;;;3.63;;
53646;SDS011;39550;52.230;5.194;2022-10-17T01:32:55;6.10;;;3.35;;
53646;SDS011;39550;52.230;5.194;2022-10-17T01:37:58;5.57;;;3.63;;
53646;SDS011;39550;52.230;5.194;2022-10-17T01:40:48;4.70;;;2.97;;
53646;SDS011;39550;52.230;5.194;2022-10-17T01:45:52;4.68;;;3.35;;
53646;SDS011;39550;52.230;5.194;2022-10-17T01:48:24;5.90;;;3.58;;
53646;SDS011;39550;52.230;5.194;2022-10-17T01:50:58;5.43;;;3.30;;
53646;SDS011;39550;52.230;5.194;2022-10-17T01:53:33;6.40;;;3.35;;
53646;SDS011;39550;52.230;5.194;2022-10-17T01:56:04;5.28;;;3.20;;
53646;SDS011;39550;52.230;5.194;2022-10-17T01:58:35;5.47;;;3.78;;
53646;SDS011;39550;52.230;5.194;2022-10-17T02:01:05;4.47;;;3.13;;
53646;SDS011;39550;52.230;5.194;2022-10-17T02:03:33;5.88;;;3.75;;
53646;SDS011;39550;52.230;5.194;2022-10-17T02:05:59;5.43;;;3.35;;
53646;SDS011;39550;52.230;5.194;2022-10-17T02:08:26;5.80;;;3.47;;
53646;SDS011;39550;52.230;5.194;2022-10-17T02:11:00;6.15;;;3.90;;
53646;SDS011;39550;52.230;5.194;2022-10-17T02:27:28;5.25;;;3.30;;
53646;SDS011;39550;52.230;5.194;2022-10-17T02:30:29;6.18;;;4.20;;
53646;SDS011;39550;52.230;5.194;2022-10-17T02:33:02;5.45;;;3.70;;
53646;SDS011;39550;52.230;5.194;2022-10-17T02:35:32;5.68;;;3.58;;
53646;SDS011;39550;52.230;5.194;2022-10-17T02:38:01;5.95;;;4.20;;
53646;SDS011;39550;52.230;5.194;2022-10-17T02:40:29;5.93;;;3.30;;
53646;SDS011;39550;52.230;5.194;2022-10-17T02:42:55;6.15;;;3.97;;
53646;SDS011;39550;52.230;5.194;2022-10-17T02:45:23;6.57;;;3.90;;
53646;SDS011;39550;52.230;5.194;2022-10-17T02:47:56;6.28;;;3.78;;
53646;SDS011;39550;52.230;5.194;2022-10-17T02:50:28;5.70;;;3.90;;
53646;SDS011;39550;52.230;5.194;2022-10-17T02:53:07;6.18;;;4.07;;
53646;SDS011;39550;52.230;5.194;2022-10-17T02:55:40;5.22;;;3.60;;
53646;SDS011;39550;52.230;5.194;2022-10-17T02:58:30;5.68;;;3.97;;
53646;SDS011;39550;52.230;5.194;2022-10-17T03:00:57;7.10;;;4.18;;
53646;SDS011;39550;52.230;5.194;2022-10-17T03:03:24;5.80;;;4.13;;
53646;SDS011;39550;52.230;5.194;2022-10-17T03:05:53;6.05;;;3.75;;
53646;SDS011;39550;52.230;5.194;2022-10-17T03:08:19;6.45;;;3.60;;
53646;SDS011;39550;52.230;5.194;2022-10-17T03:10:44;6.43;;;4.13;;
53646;SDS011;39550;52.230;5.194;2022-10-17T03:13:10;5.38;;;3.80;;
53646;SDS011;39550;52.230;5.194;2022-10-17T03:15:35;5.30;;;3.70;;
53646;SDS011;39550;52.230;5.194;2022-10-17T03:18:01;7.30;;;4.47;;
53646;SDS011;39550;52.230;5.194;2022-10-17T03:20:26;5.32;;;3.63;;
53646;SDS011;39550;52.230;5.194;2022-10-17T03:22:51;6.75;;;3.60;;
53646;SDS011;39550;52.230;5.194;2022-10-17T03:25:17;6.13;;;3.70;;
53646;SDS011;39550;52.230;5.194;2022-10-17T03:27:42;5.65;;;4.03;;
53646;SDS011;39550;52.230;5.194;2022-10-17T03:30:08;5.95;;;3.63;;
53646;SDS011;39550;52.230;5.194;2022-10-17T03:32:33;6.05;;;4.07;;
53646;SDS011;39550;52.230;5.194;2022-10-17T03:34:59;6.30;;;3.70;;
53646;SDS011;39550;52.230;5.194;2022-10-17T03:37:24;5.78;;;3.80;;
53646;SDS011;39550;52.230;5.194;2022-10-17T03:39:50;5.75;;;3.78;;
53646;SDS011;39550;52.230;5.194;2022-10-17T03:42:15;5.82;;;3.85;;
53646;SDS011;39550;52.230;5.194;2022-10-17T03:44:40;6.00;;;4.00;;
53646;SDS011;39550;52.230;5.194;2022-10-17T03:47:06;6.10;;;3.70;;
53646;SDS011;39550;52.230;5.194;2022-10-17T03:49:31;5.57;;;4.05;;
53646;SDS011;39550;52.230;5.194;2022-10-17T03:51:56;6.80;;;4.05;;
53646;SDS011;39550;52.230;5.194;2022-10-17T03:54:22;6.18;;;3.58;;
53646;SDS011;39550;52.230;5.194;2022-10-17T03:56:47;6.05;;;4.22;;
53646;SDS011;39550;52.230;5.194;2022-10-17T03:59:13;6.47;;;4.13;;
53646;SDS011;39550;52.230;5.194;2022-10-17T04:01:39;6.28;;;4.32;;
53646;SDS011;39550;52.230;5.194;2022-10-17T04:04:04;6.32;;;4.57;;
53646;SDS011;39550;52.230;5.194;2022-10-17T04:06:30;6.97;;;4.10;;
53646;SDS011;39550;52.230;5.194;2022-10-17T04:08:56;7.32;;;4.65;;
53646;SDS011;39550;52.230;5.194;2022-10-17T04:11:21;6.32;;;4.30;;
53646;SDS011;39550;52.230;5.194;2022-10-17T04:13:47;6.80;;;4.05;;
53646;SDS011;39550;52.230;5.194;2022-10-17T04:16:16;5.80;;;4.20;;
53646;SDS011;39550;52.230;5.194;2022-10-17T04:18:42;5.57;;;3.90;;
53646;SDS011;39550;52.230;5.194;2022-10-17T04:21:08;6.70;;;4.22;;
53646;SDS011;39550;52.230;5.194;2022-10-17T04:23:34;6.13;;;4.20;;
53646;SDS011;39550;52.230;5.194;2022-10-17T04:26:00;6.40;;;4.60;;
53646;SDS011;39550;52.230;5.194;2022-10-17T04:28:27;7.07;;;4.40;;
53646;SDS011;39550;52.230;5.194;2022-10-17T04:31:03;7.22;;;4.18;;
53646;SDS011;39550;52.230;5.194;2022-10-17T04:33:31;5.88;;;4.05;;
53646;SDS011;39550;52.230;5.194;2022-10-17T04:35:57;6.10;;;4.18;;
53646;SDS011;39550;52.230;5.194;2022-10-17T04:38:24;6.88;;;4.20;;
53646;SDS011;39550;52.230;5.194;2022-10-17T04:40:50;5.68;;;4.25;;
53646;SDS011;39550;52.230;5.194;2022-10-17T04:43:15;6.75;;;4.57;;
53646;SDS011;39550;52.230;5.194;2022-10-17T04:45:41;6.75;;;4.15;;
53646;SDS011;39550;52.230;5.194;2022-10-17T04:48:06;6.70;;;4.63;;
53646;SDS011;39550;52.230;5.194;2022-10-17T04:50:31;7.28;;;4.15;;
53646;SDS011;39550;52.230;5.194;2022-10-17T04:52:57;6.75;;;4.50;;
53646;SDS011;39550;52.230;5.194;2022-10-17T04:55:22;6.55;;;4.25;;
53646;SDS011;39550;52.230;5.194;2022-10-17T04:57:47;8.02;;;4.18;;
53646;SDS011;39550;52.230;5.194;2022-10-17T05:00:12;5.65;;;4.10;;
53646;SDS011;39550;52.230;5.194;2022-10-17T05:02:38;6.05;;;4.40;;
53646;SDS011;39550;52.230;5.194;2022-10-17T05:05:03;6.70;;;4.30;;
53646;SDS011;39550;52.230;5.194;2022-10-17T05:07:29;5.20;;;3.85;;
53646;SDS011;39550;52.230;5.194;2022-10-17T05:09:54;10.68;;;4.70;;
53646;SDS011;39550;52.230;5.194;2022-10-17T05:12:19;5.72;;;4.00;;
53646;SDS011;39550;52.230;5.194;2022-10-17T05:14:45;6.53;;;4.60;;
53646;SDS011;39550;52.230;5.194;2022-10-17T05:17:10;6.57;;;4.50;;
53646;SDS011;39550;52.230;5.194;2022-10-17T05:19:35;6.75;;;4.40;;
53646;SDS011;39550;52.230;5.194;2022-10-17T05:22:01;6.75;;;4.45;;
53646;SDS011;39550;52.230;5.194;2022-10-17T05:24:26;6.38;;;4.45;;
53646;SDS011;39550;52.230;5.194;2022-10-17T05:26:51;6.95;;;4.95;;
53646;SDS011;39550;52.230;5.194;2022-10-17T05:29:17;6.93;;;4.90;;
53646;SDS011;39550;52.230;5.194;2022-10-17T05:31:42;7.22;;;4.63;;
53646;SDS011;39550;52.230;5.194;2022-10-17T05:34:07;7.38;;;5.43;;
53646;SDS011;39550;52.230;5.194;2022-10-17T05:36:33;7.72;;;5.28;;
53646;SDS011;39550;52.230;5.194;2022-10-17T05:38:58;6.00;;;4.60;;
53646;SDS011;39550;52.230;5.194;2022-10-17T05:41:24;7.03;;;4.72;;
53646;SDS011;39550;52.230;5.194;2022-10-17T05:43:49;7.57;;;4.45;;
53646;SDS011;39550;52.230;5.194;2022-10-17T05:46:15;7.65;;;4.57;;
53646;SDS011;39550;52.230;5.194;2022-10-17T05:48:40;6.78;;;4.68;;
53646;SDS011;39550;52.230;5.194;2022-10-17T05:51:06;6.13;;;4.60;;
53646;SDS011;39550;52.230;5.194;2022-10-17T05:53:33;6.68;;;4.72;;
53646;SDS011;39550;52.230;5.194;2022-10-17T05:56:02;7.00;;;4.82;;
53646;SDS011;39550;52.230;5.194;2022-10-17T05:58:29;7.78;;;5.75;;
53646;SDS011;39550;52.230;5.194;2022-10-17T06:00:59;5.82;;;4.40;;
53646;SDS011;39550;52.230;5.194;2022-10-17T06:03:26;6.38;;;4.60;;
53646;SDS011;39550;52.230;5.194;2022-10-17T06:05:52;6.85;;;4.53;;
53646;SDS011;39550;52.230;5.194;2022-10-17T06:08:18;9.57;;;5.18;;
53646;SDS011;39550;52.230;5.194;2022-10-17T06:10:46;6.00;;;4.60;;
53646;SDS011;39550;52.230;5.194;2022-10-17T06:13:13;5.82;;;4.38;;
53646;SDS011;39550;52.230;5.194;2022-10-17T06:15:38;7.60;;;5.50;;
53646;SDS011;39550;52.230;5.194;2022-10-17T06:18:03;7.18;;;5.05;;
53646;SDS011;39550;52.230;5.194;2022-10-17T06:20:29;6.93;;;4.40;;
53646;SDS011;39550;52.230;5.194;2022-10-17T06:22:54;6.78;;;4.90;;
53646;SDS011;39550;52.230;5.194;2022-10-17T06:25:19;7.35;;;5.22;;
53646;SDS011;39550;52.230;5.194;2022-10-17T06:27:45;6.70;;;4.75;;
53646;SDS011;39550;52.230;5.194;2022-10-17T06:30:10;6.60;;;4.93;;
53646;SDS011;39550;52.230;5.194;2022-10-17T06:32:35;6.20;;;4.50;;
53646;SDS011;39550;52.230;5.194;2022-10-17T06:35:01;5.75;;;4.45;;
53646;SDS011;39550;52.230;5.194;2022-10-17T06:37:29;7.22;;;5.15;;
53646;SDS011;39550;52.230;5.194;2022-10-17T06:39:56;6.80;;;4.50;;
53646;SDS011;39550;52.230;5.194;2022-10-17T06:42:21;6.82;;;4.80;;
53646;SDS011;39550;52.230;5.194;2022-10-17T06:44:46;8.55;;;5.85;;
53646;SDS011;39550;52.230;5.194;2022-10-17T06:47:11;7.20;;;5.43;;
53646;SDS011;39550;52.230;5.194;2022-10-17T06:49:37;8.98;;;6.57;;
53646;SDS011;39550;52.230;5.194;2022-10-17T06:52:02;9.13;;;6.75;;
53646;SDS011;39550;52.230;5.194;2022-10-17T06:54:28;10.88;;;6.72;;
53646;SDS011;39550;52.230;5.194;2022-10-17T06:56:53;9.55;;;7.22;;
53646;SDS011;39550;52.230;5.194;2022-10-17T06:59:20;13.20;;;7.47;;
53646;SDS011;39550;52.230;5.194;2022-10-17T07:01:45;12.88;;;7.75;;
53646;SDS011;39550;52.230;5.194;2022-10-17T07:04:10;13.10;;;7.55;;
53646;SDS011;39550;52.230;5.194;2022-10-17T07:06:36;9.70;;;7.75;;
53646;SDS011;39550;52.230;5.194;2022-10-17T07:09:02;14.75;;;9.15;;
53646;SDS011;39550;52.230;5.194;2022-10-17T07:11:30;10.40;;;7.65;;
53646;SDS011;39550;52.230;5.194;2022-10-17T07:13:56;11.18;;;7.93;;
53646;SDS011;39550;52.230;5.194;2022-10-17T07:16:21;11.95;;;7.82;;
53646;SDS011;39550;52.230;5.194;2022-10-17T07:18:47;12.05;;;8.20;;
53646;SDS011;39550;52.230;5.194;2022-10-17T07:21:14;10.93;;;8.15;;
53646;SDS011;39550;52.230;5.194;2022-10-17T07:23:40;11.23;;;8.02;;
53646;SDS011;39550;52.230;5.194;2022-10-17T07:26:07;12.23;;;8.98;;
53646;SDS011;39550;52.230;5.194;2022-10-17T07:28:35;15.20;;;8.38;;
53646;SDS011;39550;52.230;5.194;2022-10-17T07:31:06;13.13;;;9.48;;
53646;SDS011;39550;52.230;5.194;2022-10-17T07:33:32;16.17;;;9.35;;
53646;SDS011;39550;52.230;5.194;2022-10-17T07:35:58;12.65;;;8.10;;
53646;SDS011;39550;52.230;5.194;2022-10-17T07:38:25;13.32;;;8.55;;
53646;SDS011;39550;52.230;5.194;2022-10-17T07:40:54;10.43;;;7.80;;
53646;SDS011;39550;52.230;5.194;2022-10-17T07:43:21;13.75;;;8.70;;
53646;SDS011;39550;52.230;5.194;2022-10-17T07:45:47;11.38;;;8.20;;
53646;SDS011;39550;52.230;5.194;2022-10-17T07:48:13;11.77;;;7.65;;
53646;SDS011;39550;52.230;5.194;2022-10-17T07:50:38;11.93;;;7.60;;
53646;SDS011;39550;52.230;5.194;2022-10-17T07:53:03;12.07;;;7.95;;
53646;SDS011;39550;52.230;5.194;2022-10-17T07:55:28;11.43;;;7.57;;
53646;SDS011;39550;52.230;5.194;2022-10-17T07:57:54;10.98;;;7.50;;
53646;SDS011;39550;52.230;5.194;2022-10-17T08:00:19;12.32;;;7.78;;
53646;SDS011;39550;52.230;5.194;2022-10-17T08:02:44;10.85;;;7.75;;
53646;SDS011;39550;52.230;5.194;2022-10-17T08:05:10;10.35;;;7.25;;
53646;SDS011;39550;52.230;5.194;2022-10-17T08:07:35;10.63;;;7.43;;
53646;SDS011;39550;52.230;5.194;2022-10-17T08:10:00;11.82;;;7.82;;
53646;SDS011;39550;52.230;5.194;2022-10-17T08:12:26;10.00;;;6.90;;
53646;SDS011;39550;52.230;5.194;2022-10-17T08:14:51;12.07;;;7.90;;
53646;SDS011;39550;52.230;5.194;2022-10-17T08:17:16;11.98;;;7.47;;
53646;SDS011;39550;52.230;5.194;2022-10-17T08:19:42;10.35;;;7.03;;
53646;SDS011;39550;52.230;5.194;2022-10-17T08:22:07;10.82;;;6.93;;
53646;SDS011;39550;52.230;5.194;2022-10-17T08:24:32;11.77;;;6.78;;
53646;SDS011;39550;52.230;5.194;2022-10-17T08:26:58;9.95;;;6.60;;
53646;SDS011;39550;52.230;5.194;2022-10-17T08:29:24;9.30;;;7.13;;
53646;SDS011;39550;52.230;5.194;2022-10-17T08:31:50;10.77;;;7.38;;
53646;SDS011;39550;52.230;5.194;2022-10-17T08:34:16;11.50;;;6.38;;
53646;SDS011;39550;52.230;5.194;2022-10-17T08:36:42;11.27;;;6.60;;
53646;SDS011;39550;52.230;5.194;2022-10-17T08:39:07;10.07;;;7.60;;
53646;SDS011;39550;52.230;5.194;2022-10-17T08:47:01;10.82;;;6.50;;
53646;SDS011;39550;52.230;5.194;2022-10-17T08:53:00;9.90;;;6.45;;
53646;SDS011;39550;52.230;5.194;2022-10-17T08:55:13;9.90;;;6.22;;
53646;SDS011;39550;52.230;5.194;2022-10-17T08:57:41;9.00;;;6.43;;
53646;SDS011;39550;52.230;5.194;2022-10-17T09:00:25;8.38;;;5.95;;
53646;SDS011;39550;52.230;5.194;2022-10-17T09:05:51;8.48;;;6.30;;
53646;SDS011;39550;52.230;5.194;2022-10-17T09:08:34;10.07;;;6.28;;
53646;SDS011;39550;52.230;5.194;2022-10-17T09:11:30;8.07;;;6.57;;
53646;SDS011;39550;52.230;5.194;2022-10-17T09:14:07;8.27;;;5.90;;
53646;SDS011;39550;52.230;5.194;2022-10-17T09:19:16;8.30;;;6.00;;
53646;SDS011;39550;52.230;5.194;2022-10-17T09:24:32;8.98;;;6.47;;
53646;SDS011;39550;52.230;5.194;2022-10-17T09:30:11;8.82;;;6.35;;
53646;SDS011;39550;52.230;5.194;2022-10-17T09:33:08;9.65;;;6.75;;
53646;SDS011;39550;52.230;5.194;2022-10-17T09:35:55;11.60;;;6.70;;
53646;SDS011;39550;52.230;5.194;2022-10-17T09:38:22;7.20;;;5.78;;
53646;SDS011;39550;52.230;5.194;2022-10-17T09:40:54;8.27;;;5.78;;
53646;SDS011;39550;52.230;5.194;2022-10-17T09:43:23;8.15;;;5.38;;
53646;SDS011;39550;52.230;5.194;2022-10-17T09:48:40;10.05;;;6.20;;
53646;SDS011;39550;52.230;5.194;2022-10-17T09:51:10;8.85;;;5.85;;
53646;SDS011;39550;52.230;5.194;2022-10-17T09:53:41;8.75;;;5.88;;
53646;SDS011;39550;52.230;5.194;2022-10-17T09:56:16;8.32;;;6.03;;
53646;SDS011;39550;52.230;5.194;2022-10-17T10:01:26;7.70;;;5.60;;
53646;SDS011;39550;52.230;5.194;2022-10-17T10:06:35;7.97;;;5.75;;
53646;SDS011;39550;52.230;5.194;2022-10-17T10:09:00;9.10;;;6.13;;
53646;SDS011;39550;52.230;5.194;2022-10-17T10:11:44;8.10;;;5.93;;
53646;SDS011;39550;52.230;5.194;2022-10-17T10:14:33;8.90;;;5.43;;
53646;SDS011;39550;52.230;5.194;2022-10-17T10:17:00;9.95;;;5.75;;
53646;SDS011;39550;52.230;5.194;2022-10-17T10:19:29;9.95;;;6.47;;
53646;SDS011;39550;52.230;5.194;2022-10-17T10:21:57;9.30;;;6.20;;
53646;SDS011;39550;52.230;5.194;2022-10-17T10:24:25;12.32;;;6.80;;
53646;SDS011;39550;52.230;5.194;2022-10-17T10:26:51;11.68;;;7.50;;
53646;SDS011;39550;52.230;5.194;2022-10-17T10:37:37;11.27;;;7.40;;
53646;SDS011;39550;52.230;5.194;2022-10-17T10:40:13;10.88;;;7.38;;
53646;SDS011;39550;52.230;5.194;2022-10-17T10:42:45;12.48;;;7.03;;
53646;SDS011;39550;52.230;5.194;2022-10-17T10:56:05;8.65;;;6.03;;
53646;SDS011;39550;52.230;5.194;2022-10-17T11:09:54;10.40;;;5.88;;
53646;SDS011;39550;52.230;5.194;2022-10-17T11:12:56;8.75;;;6.40;;
53646;SDS011;39550;52.230;5.194;2022-10-17T11:15:36;9.60;;;5.90;;
53646;SDS011;39550;52.230;5.194;2022-10-17T11:23:59;8.35;;;5.50;;
53646;SDS011;39550;52.230;5.194;2022-10-17T11:26:30;9.32;;;5.32;;
53646;SDS011;39550;52.230;5.194;2022-10-17T11:29:01;9.73;;;5.93;;
53646;SDS011;39550;52.230;5.194;2022-10-17T11:31:32;7.93;;;5.13;;
53646;SDS011;39550;52.230;5.194;2022-10-17T11:34:03;10.10;;;5.60;;
53646;SDS011;39550;52.230;5.194;2022-10-17T11:36:39;7.60;;;5.63;;
53646;SDS011;39550;52.230;5.194;2022-10-17T11:39:12;8.85;;;4.90;;
53646;SDS011;39550;52.230;5.194;2022-10-17T11:46:53;8.73;;;6.00;;
53646;SDS011;39550;52.230;5.194;2022-10-17T11:49:31;7.95;;;5.30;;
53646;SDS011;39550;52.230;5.194;2022-10-17T11:53:02;9.25;;;6.35;;
53646;SDS011;39550;52.230;5.194;2022-10-17T11:55:26;10.80;;;5.35;;
53646;SDS011;39550;52.230;5.194;2022-10-17T12:08:33;8.48;;;5.03;;
53646;SDS011;39550;52.230;5.194;2022-10-17T12:11:19;7.18;;;5.68;;
53646;SDS011;39550;52.230;5.194;2022-10-17T12:13:58;6.80;;;5.18;;
53646;SDS011;39550;52.230;5.194;2022-10-17T12:21:52;7.32;;;4.80;;
53646;SDS011;39550;52.230;5.194;2022-10-17T12:27:20;7.60;;;4.93;;
53646;SDS011;39550;52.230;5.194;2022-10-17T12:30:00;6.28;;;4.57;;
53646;SDS011;39550;52.230;5.194;2022-10-17T12:32:28;7.00;;;5.10;;
53646;SDS011;39550;52.230;5.194;2022-10-17T12:34:54;6.97;;;4.57;;
53646;SDS011;39550;52.230;5.194;2022-10-17T12:42:59;9.25;;;5.07;;
53646;SDS011;39550;52.230;5.194;2022-10-17T12:51:00;9.77;;;5.63;;
53646;SDS011;39550;52.230;5.194;2022-10-17T12:53:27;9.77;;;5.20;;
53646;SDS011;39550;52.230;5.194;2022-10-17T12:56:19;11.68;;;5.25;;
53646;SDS011;39550;52.230;5.194;2022-10-17T12:58:54;9.25;;;5.68;;
53646;SDS011;39550;52.230;5.194;2022-10-17T13:01:32;11.90;;;6.00;;
53646;SDS011;39550;52.230;5.194;2022-10-17T13:04:00;10.10;;;6.35;;
53646;SDS011;39550;52.230;5.194;2022-10-17T13:06:30;10.07;;;6.18;;
53646;SDS011;39550;52.230;5.194;2022-10-17T13:09:04;13.07;;;6.72;;
53646;SDS011;39550;52.230;5.194;2022-10-17T13:11:33;18.65;;;5.90;;
53646;SDS011;39550;52.230;5.194;2022-10-17T13:14:02;9.70;;;6.50;;
53646;SDS011;39550;52.230;5.194;2022-10-17T13:16:35;8.23;;;5.80;;
53646;SDS011;39550;52.230;5.194;2022-10-17T13:19:03;10.88;;;6.20;;
53646;SDS011;39550;52.230;5.194;2022-10-17T13:21:37;11.55;;;6.00;;
53646;SDS011;39550;52.230;5.194;2022-10-17T13:24:18;8.80;;;6.30;;
53646;SDS011;39550;52.230;5.194;2022-10-17T13:26:45;12.63;;;6.32;;
53646;SDS011;39550;52.230;5.194;2022-10-17T13:29:11;8.85;;;6.68;;
53646;SDS011;39550;52.230;5.194;2022-10-17T13:31:42;11.15;;;6.40;;
53646;SDS011;39550;52.230;5.194;2022-10-17T13:34:15;11.05;;;6.85;;
53646;SDS011;39550;52.230;5.194;2022-10-17T13:36:43;12.02;;;6.20;;
53646;SDS011;39550;52.230;5.194;2022-10-17T13:39:12;9.48;;;6.85;;
53646;SDS011;39550;52.230;5.194;2022-10-17T13:41:41;9.30;;;5.70;;
53646;SDS011;39550;52.230;5.194;2022-10-17T13:44:11;8.57;;;5.93;;
53646;SDS011;39550;52.230;5.194;2022-10-17T13:46:39;8.38;;;6.20;;
53646;SDS011;39550;52.230;5.194;2022-10-17T13:49:09;8.13;;;5.30;;
53646;SDS011;39550;52.230;5.194;2022-10-17T13:51:41;9.18;;;5.75;;
53646;SDS011;39550;52.230;5.194;2022-10-17T13:54:18;10.45;;;6.38;;
53646;SDS011;39550;52.230;5.194;2022-10-17T13:57:17;9.35;;;5.63;;
53646;SDS011;39550;52.230;5.194;2022-10-17T13:59:54;8.52;;;5.30;;
53646;SDS011;39550;52.230;5.194;2022-10-17T14:02:23;7.72;;;5.57;;
53646;SDS011;39550;52.230;5.194;2022-10-17T14:10:20;9.63;;;5.32;;
53646;SDS011;39550;52.230;5.194;2022-10-17T14:12:48;9.43;;;5.50;;
53646;SDS011;39550;52.230;5.194;2022-10-17T14:15:15;7.18;;;5.38;;
53646;SDS011;39550;52.230;5.194;2022-10-17T14:17:41;9.93;;;5.07;;
53646;SDS011;39550;52.230;5.194;2022-10-17T14:20:18;7.50;;;5.32;;
53646;SDS011;39550;52.230;5.194;2022-10-17T14:22:45;8.35;;;5.35;;
53646;SDS011;39550;52.230;5.194;2022-10-17T14:33:00;9.93;;;6.25;;
53646;SDS011;39550;52.230;5.194;2022-10-17T14:35:28;7.45;;;5.47;;
53646;SDS011;39550;52.230;5.194;2022-10-17T14:38:01;8.70;;;6.43;;
53646;SDS011;39550;52.230;5.194;2022-10-17T14:40:29;10.25;;;6.53;;
53646;SDS011;39550;52.230;5.194;2022-10-17T14:42:57;8.43;;;5.90;;
53646;SDS011;39550;52.230;5.194;2022-10-17T14:45:28;8.73;;;6.07;;
53646;SDS011;39550;52.230;5.194;2022-10-17T14:47:58;10.93;;;6.90;;
53646;SDS011;39550;52.230;5.194;2022-10-17T14:50:28;11.23;;;7.45;;
53646;SDS011;39550;52.230;5.194;2022-10-17T14:53:00;8.73;;;6.80;;
53646;SDS011;39550;52.230;5.194;2022-10-17T14:55:34;16.92;;;8.35;;
53646;SDS011;39550;52.230;5.194;2022-10-17T14:58:01;10.85;;;7.50;;
53646;SDS011;39550;52.230;5.194;2022-10-17T15:00:39;10.45;;;8.23;;
53646;SDS011;39550;52.230;5.194;2022-10-17T15:03:05;11.52;;;8.07;;
53646;SDS011;39550;52.230;5.194;2022-10-17T15:05:30;11.27;;;7.75;;
53646;SDS011;39550;52.230;5.194;2022-10-17T15:07:55;12.18;;;8.52;;
53646;SDS011;39550;52.230;5.194;2022-10-17T15:12:52;11.63;;;8.15;;
53646;SDS011;39550;52.230;5.194;2022-10-17T15:15:17;17.33;;;9.88;;
53646;SDS011;39550;52.230;5.194;2022-10-17T15:17:42;13.70;;;9.73;;
53646;SDS011;39550;52.230;5.194;2022-10-17T15:20:11;18.05;;;11.70;;
53646;SDS011;39550;52.230;5.194;2022-10-17T15:22:39;14.68;;;10.38;;
53646;SDS011;39550;52.230;5.194;2022-10-17T15:25:05;14.05;;;10.02;;
53646;SDS011;39550;52.230;5.194;2022-10-17T15:27:31;13.10;;;9.80;;
53646;SDS011;39550;52.230;5.194;2022-10-17T15:29:56;13.52;;;9.32;;
53646;SDS011;39550;52.230;5.194;2022-10-17T15:32:21;12.95;;;9.13;;
53646;SDS011;39550;52.230;5.194;2022-10-17T15:34:47;13.13;;;9.10;;
53646;SDS011;39550;52.230;5.194;2022-10-17T15:37:17;13.50;;;8.63;;
53646;SDS011;39550;52.230;5.194;2022-10-17T15:39:46;13.63;;;9.13;;
53646;SDS011;39550;52.230;5.194;2022-10-17T15:42:22;16.15;;;9.60;;
53646;SDS011;39550;52.230;5.194;2022-10-17T15:44:52;13.38;;;9.32;;
53646;SDS011;39550;52.230;5.194;2022-10-17T15:47:21;12.38;;;8.80;;
53646;SDS011;39550;52.230;5.194;2022-10-17T15:49:47;11.07;;;8.18;;
53646;SDS011;39550;52.230;5.194;2022-10-17T15:52:13;12.07;;;8.80;;
53646;SDS011;39550;52.230;5.194;2022-10-17T15:54:38;11.88;;;7.72;;
53646;SDS011;39550;52.230;5.194;2022-10-17T15:57:03;12.32;;;8.30;;
53646;SDS011;39550;52.230;5.194;2022-10-17T15:59:30;10.50;;;7.97;;
53646;SDS011;39550;52.230;5.194;2022-10-17T16:04:23;10.80;;;7.03;;
53646;SDS011;39550;52.230;5.194;2022-10-17T16:06:51;10.98;;;7.90;;
53646;SDS011;39550;52.230;5.194;2022-10-17T16:09:16;11.57;;;8.35;;
53646;SDS011;39550;52.230;5.194;2022-10-17T16:11:42;12.90;;;7.70;;
53646;SDS011;39550;52.230;5.194;2022-10-17T16:14:11;12.55;;;8.02;;
53646;SDS011;39550;52.230;5.194;2022-10-17T16:16:39;10.93;;;8.00;;
53646;SDS011;39550;52.230;5.194;2022-10-17T16:19:06;10.27;;;7.30;;
53646;SDS011;39550;52.230;5.194;2022-10-17T16:21:32;11.30;;;7.57;;
53646;SDS011;39550;52.230;5.194;2022-10-17T16:23:58;11.52;;;7.72;;
53646;SDS011;39550;52.230;5.194;2022-10-17T16:26:24;10.85;;;6.80;;
53646;SDS011;39550;52.230;5.194;2022-10-17T16:28:50;12.63;;;7.70;;
53646;SDS011;39550;52.230;5.194;2022-10-17T16:31:25;12.02;;;7.20;;
53646;SDS011;39550;52.230;5.194;2022-10-17T16:33:54;12.32;;;7.40;;
53646;SDS011;39550;52.230;5.194;2022-10-17T16:36:21;10.95;;;7.18;;
53646;SDS011;39550;52.230;5.194;2022-10-17T16:38:47;10.90;;;7.22;;
53646;SDS011;39550;52.230;5.194;2022-10-17T16:41:35;11.27;;;7.13;;
53646;SDS011;39550;52.230;5.194;2022-10-17T16:44:02;19.52;;;8.60;;
53646;SDS011;39550;52.230;5.194;2022-10-17T16:46:30;27.77;;;8.68;;
53646;SDS011;39550;52.230;5.194;2022-10-17T16:48:56;28.70;;;9.05;;
53646;SDS011;39550;52.230;5.194;2022-10-17T16:51:22;17.48;;;8.27;;
53646;SDS011;39550;52.230;5.194;2022-10-17T16:53:48;27.20;;;7.50;;
53646;SDS011;39550;52.230;5.194;2022-10-17T16:56:18;19.48;;;8.05;;
53646;SDS011;39550;52.230;5.194;2022-10-17T16:58:48;14.07;;;7.15;;
53646;SDS011;39550;52.230;5.194;2022-10-17T17:01:17;18.92;;;8.00;;
53646;SDS011;39550;52.230;5.194;2022-10-17T17:03:45;14.55;;;7.05;;
53646;SDS011;39550;52.230;5.194;2022-10-17T17:06:15;16.60;;;7.28;;
53646;SDS011;39550;52.230;5.194;2022-10-17T17:08:46;21.85;;;7.25;;
53646;SDS011;39550;52.230;5.194;2022-10-17T17:11:13;13.15;;;6.65;;
53646;SDS011;39550;52.230;5.194;2022-10-17T17:13:39;16.77;;;7.95;;
53646;SDS011;39550;52.230;5.194;2022-10-17T17:16:09;13.10;;;6.28;;
53646;SDS011;39550;52.230;5.194;2022-10-17T17:18:39;12.82;;;6.43;;
53646;SDS011;39550;52.230;5.194;2022-10-17T17:21:06;10.13;;;6.72;;
53646;SDS011;39550;52.230;5.194;2022-10-17T17:23:34;10.75;;;6.20;;
53646;SDS011;39550;52.230;5.194;2022-10-17T17:26:03;10.80;;;6.35;;
53646;SDS011;39550;52.230;5.194;2022-10-17T17:28:30;12.98;;;6.57;;
53646;SDS011;39550;52.230;5.194;2022-10-17T17:30:56;12.50;;;6.05;;
53646;SDS011;39550;52.230;5.194;2022-10-17T17:33:22;10.18;;;6.40;;
53646;SDS011;39550;52.230;5.194;2022-10-17T17:35:52;11.88;;;6.38;;